createdAt,value
2022-10-17T00:05:09.375Z,6.00
2022-10-17T00:15:19.980Z,6.50
2022-10-17T00:25:28.947Z,6.20
2022-10-17T00:35:36.517Z,6.20
2022-10-17T00:45:45.474Z,7.13
2022-10-17T00:55:56.944Z,5.82
2022-10-17T01:06:05.599Z,6.35
2022-10-17T01:16:19.377Z,5.68
2022-10-17T01:26:40.410Z,7.65
2022-10-17T01:36:54.855Z,6.55
2022-10-17T01:47:07.357Z,6.15
2022-10-17T01:57:22.624Z,6.25
2022-10-17T02:07:30.019Z,6.63
2022-10-17T02:17:51.505Z,6.85
2022-10-17T02:28:03.900Z,8.13
2022-10-17T02:38:14.134Z,9.25
2022-10-17T02:48:27.476Z,11.50
2022-10-17T02:58:38.742Z,15.40
2022-10-17T03:08:46.276Z,18.40
2022-10-17T03:18:55.807Z,18.52
2022-10-17T03:29:02.863Z,20.23
2022-10-17T03:39:12.357Z,18.80
2022-10-17T03:49:19.683Z,18.02
2022-10-17T03:59:28.644Z,19.60
2022-10-17T04:09:43.633Z,19.92
2022-10-17T04:19:55.783Z,19.75
2022-10-17T04:30:03.295Z,18.38
2022-10-17T04:40:15.660Z,18.75
2022-10-17T04:50:30.702Z,18.73
2022-10-17T05:01:11.354Z,20.00
2022-10-17T05:11:22.940Z,22.42
2022-10-17T05:31:40.403Z,21.67
2022-10-17T05:41:49.889Z,23.25
2022-10-17T05:51:57.069Z,23.58
2022-10-17T06:02:06.967Z,24.15
2022-10-17T06:12:14.751Z,21.10
2022-10-17T06:22:24.658Z,21.45
2022-10-17T06:32:32.242Z,20.98
2022-10-17T06:42:41.062Z,23.48
2022-10-17T06:53:02.964Z,24.30
2022-10-17T07:03:34.924Z,24.95
2022-10-17T07:13:42.116Z,23.60
2022-10-17T07:23:51.432Z,22.60
2022-10-17T07:33:58.776Z,23.38
2022-10-17T07:44:07.736Z,23.27
2022-10-17T07:54:20.896Z,22.67
2022-10-17T08:04:29.618Z,24.63
2022-10-17T08:14:36.763Z,23.73
2022-10-17T08:24:47.339Z,24.30
2022-10-17T08:34:55.074Z,20.92
2022-10-17T08:45:19.236Z,22.42
2022-10-17T08:55:33.322Z,22.77
2022-10-17T09:05:53.413Z,24.65
2022-10-17T09:16:10.304Z,23.17
2022-10-17T09:26:19.581Z,24.88
2022-10-17T09:36:30.408Z,24.63
2022-10-17T09:46:41.247Z,25.23
2022-10-17T09:57:04.721Z,25.13
2022-10-17T10:07:16.138Z,28.77
2022-10-17T10:17:42.589Z,26.33
2022-10-17T10:27:51.926Z,26.20
2022-10-17T10:38:01.102Z,25.20
2022-10-17T10:48:22.166Z,24.85
2022-10-17T10:58:44.454Z,26.17
2022-10-17T11:09:04.372Z,25.63
2022-10-17T11:19:19.611Z,27.60
2022-10-17T11:29:32.754Z,25.48
2022-10-17T12:00:51.570Z,20.67
2022-10-17T12:11:04.287Z,19.70
2022-10-17T12:21:11.443Z,19.17
2022-10-17T12:31:33.871Z,19.27
2022-10-17T12:42:02.368Z,18.17
2022-10-17T13:03:10.022Z,17.80
2022-10-17T13:13:22.940Z,16.77
2022-10-17T13:23:32.668Z,15.90
2022-10-17T13:33:43.343Z,16.05
2022-10-17T13:43:50.755Z,17.17
2022-10-17T13:53:59.805Z,14.63
2022-10-17T14:04:17.099Z,14.85
2022-10-17T14:14:30.449Z,15.52
2022-10-17T14:24:43.127Z,14.48
2022-10-17T14:35:04.649Z,15.70
2022-10-17T14:45:21.284Z,14.65
2022-10-17T14:55:33.647Z,16.95
2022-10-17T15:05:40.809Z,17.70
2022-10-17T15:15:52.555Z,13.10
2022-10-17T15:25:59.554Z,13.15
2022-10-17T15:36:20.133Z,12.55
2022-10-17T15:46:29.174Z,11.98
2022-10-17T15:56:41.183Z,10.95
2022-10-17T16:06:48.272Z,11.15
2022-10-17T16:16:56.893Z,11.48
2022-10-17T16:27:03.920Z,13.37
2022-10-17T16:37:12.953Z,11.05
2022-10-17T16:47:20.959Z,10.68
2022-10-17T16:57:29.635Z,8.93
2022-10-17T17:07:36.673Z,8.52
2022-10-17T17:17:50.633Z,9.27
2022-10-17T17:28:00.344Z,8.77
2022-10-17T17:38:09.721Z,8.45
2022-10-17T17:48:16.921Z,8.25
2022-10-17T17:58:25.625Z,8.38
2022-10-17T18:08:32.569Z,8.85
2022-10-17T18:18:41.551Z,9.00
2022-10-17T18:28:48.719Z,8.98
2022-10-17T18:38:58.503Z,10.00
2022-10-17T18:49:06.112Z,9.50
2022-10-17T18:59:14.826Z,9.63
2022-10-17T19:09:21.841Z,10.15
2022-10-17T19:19:30.477Z,10.25
2022-10-17T19:29:38.041Z,10.23
2022-10-17T19:39:47.031Z,10.95
2022-10-17T19:49:54.196Z,9.60
2022-10-17T20:00:03.279Z,9.40
2022-10-17T20:10:19.427Z,9.52
2022-10-17T20:20:28.265Z,10.07
2022-10-17T20:30:35.198Z,9.63
2022-10-17T20:40:44.850Z,8.80
2022-10-17T20:50:52.079Z,9.32
2022-10-17T21:01:00.767Z,9.30
2022-10-17T21:11:12.221Z,9.90
2022-10-17T21:21:22.005Z,10.43
2022-10-17T21:31:30.224Z,11.38
2022-10-17T21:41:39.022Z,11.30
2022-10-17T21:51:48.395Z,11.80
2022-10-17T22:01:56.976Z,12.75
2022-10-17T22:12:06.742Z,11.90
2022-10-17T22:22:15.507Z,12.05
2022-10-17T22:32:22.712Z,10.55
2022-10-17T22:42:35.367Z,10.73
2022-10-17T22:52:43.063Z,9.93
2022-10-17T23:02:51.629Z,9.77
2022-10-17T23:12:58.612Z,10.90
2022-10-17T23:23:07.713Z,10.48
2022-10-17T23:33:15.687Z,10.63
2022-10-17T23:43:24.750Z,10.48
2022-10-17T23:53:31.928Z,10.93
